createdAt,value
2018-03-08T00:00:44.157Z,77.62
2018-03-08T00:01:44.172Z,77.81
2018-03-08T00:02:44.185Z,78.19
2018-03-08T00:03:44.201Z,78.47
2018-03-08T00:04:44.210Z,78.19
2018-03-08T00:05:44.225Z,78.47
2018-03-08T00:06:43.990Z,78.91
2018-03-08T00:07:44.256Z,78.28
2018-03-08T00:08:44.324Z,79.23
2018-03-08T00:09:44.033Z,79.52
2018-03-08T00:10:44.047Z,79.66
2018-03-08T00:11:44.316Z,79.57
2018-03-08T00:12:44.330Z,80.24
2018-03-08T00:13:44.089Z,79.85
2018-03-08T00:14:44.357Z,79.61
2018-03-08T00:15:44.372Z,80.14
2018-03-08T00:16:44.138Z,79.38
2018-03-08T00:17:44.410Z,80.14
2018-03-08T00:18:44.420Z,80.52
2018-03-08T00:19:44.178Z,80.14
2018-03-08T00:20:44.450Z,80.04
2018-03-08T00:21:44.208Z,80.43
2018-03-08T00:22:44.478Z,80.24
2018-03-08T00:23:44.539Z,80.9
2018-03-08T00:24:44.504Z,81.37
2018-03-08T00:25:44.525Z,81.37
2018-03-08T00:26:44.536Z,80.9
2018-03-08T00:27:44.547Z,80.9
2018-03-08T00:28:44.310Z,80.99
2018-03-08T00:29:44.579Z,80.8
2018-03-08T00:30:44.592Z,80.9
2018-03-08T00:31:44.352Z,81.27
2018-03-08T00:32:44.376Z,81.27
2018-03-08T00:33:44.633Z,81.27
2018-03-08T00:34:44.652Z,81.27
2018-03-08T00:35:44.662Z,81.09
2018-03-08T00:36:44.675Z,80.9
2018-03-08T00:37:44.690Z,81.47
2018-03-08T00:38:44.755Z,82.04
2018-03-08T00:39:44.466Z,81.09
2018-03-08T00:40:44.735Z,81.09
2018-03-08T00:41:44.749Z,81.09
2018-03-08T00:42:44.761Z,80.9
2018-03-08T00:43:44.779Z,81.23
2018-03-08T00:44:44.791Z,80.71
2018-03-08T00:45:44.551Z,80.8
2018-03-08T00:46:44.571Z,81.23
2018-03-08T00:47:44.581Z,80.33
2018-03-08T00:48:44.849Z,80.94
2018-03-08T00:49:44.609Z,80.56
2018-03-08T00:50:44.624Z,80.33
2018-03-08T00:51:44.638Z,80.84
2018-03-08T00:52:44.907Z,80.8
2018-03-08T00:53:44.670Z,81.04
2018-03-08T00:54:44.936Z,80.9
2018-03-08T00:55:44.999Z,80.9
2018-03-08T00:56:44.964Z,80.84
2018-03-08T00:57:44.979Z,80.75
2018-03-08T00:58:44.996Z,80.71
2018-03-08T00:59:45.006Z,80.46
2018-03-08T01:00:45.025Z,80.18
2018-03-08T01:01:44.787Z,80.75
2018-03-08T01:02:45.054Z,80.65
2018-03-08T01:03:44.813Z,79.99
2018-03-08T01:04:45.080Z,80.46
2018-03-08T01:05:45.095Z,80.37
2018-03-08T01:06:45.111Z,79.99
2018-03-08T01:07:45.141Z,79.71
2018-03-08T01:08:45.136Z,79.33
2018-03-08T01:09:44.900Z,79.14
2018-03-08T01:10:45.218Z,79.14
2018-03-08T01:11:45.185Z,79.14
2018-03-08T01:12:44.947Z,79.14
2018-03-08T01:13:44.956Z,79.71
2018-03-08T01:14:45.228Z,79.52
2018-03-08T01:15:45.248Z,79.33
2018-03-08T01:16:45.253Z,79.33
2018-03-08T01:17:45.273Z,79.14
2018-03-08T01:18:45.034Z,79.33
2018-03-08T01:19:45.050Z,79.33
2018-03-08T01:20:45.417Z,79.42
2018-03-08T01:21:45.331Z,79.33
2018-03-08T01:22:45.092Z,79.23
2018-03-08T01:23:45.107Z,78.85
2018-03-08T01:24:45.560Z,78.56
2018-03-08T01:25:45.184Z,78.28
2018-03-08T01:26:45.407Z,78.56
2018-03-08T01:27:45.423Z,78.38
2018-03-08T01:28:45.434Z,78.19
2018-03-08T01:29:45.487Z,78.75
2018-03-08T01:30:45.466Z,78.66
2018-03-08T01:31:45.483Z,79.33
2018-03-08T01:32:45.494Z,79.33
2018-03-08T01:33:45.512Z,78.28
2018-03-08T01:34:45.270Z,78.38
2018-03-08T01:35:45.536Z,78.03
2018-03-08T01:36:45.301Z,78.38
2018-03-08T01:37:45.567Z,78.85
2018-03-08T01:38:45.585Z,78.85
2018-03-08T01:39:45.346Z,78.56
2018-03-08T01:40:45.662Z,78.19
2018-03-08T01:41:45.624Z,78.28
2018-03-08T01:42:45.639Z,78.51
2018-03-08T01:43:45.655Z,78.28
2018-03-08T01:44:45.671Z,78.56
2018-03-08T01:45:45.694Z,78.28
2018-03-08T01:46:45.708Z,78.38
2018-03-08T01:47:45.462Z,78.19
2018-03-08T01:48:45.489Z,77.84
2018-03-08T01:49:45.745Z,78.03
2018-03-08T01:50:45.767Z,77.81
2018-03-08T01:51:45.783Z,77.71
2018-03-08T01:52:45.533Z,77.56
2018-03-08T01:53:45.809Z,77.56
2018-03-08T01:54:45.819Z,77.37
2018-03-08T01:55:45.889Z,77.28
2018-03-08T01:56:45.852Z,77.47
2018-03-08T01:57:45.869Z,76.32
2018-03-08T01:58:45.629Z,76.8
2018-03-08T01:59:45.901Z,76.52
2018-03-08T02:00:45.914Z,76.42
2018-03-08T02:01:45.929Z,76.71
2018-03-08T02:02:45.944Z,76.61
2018-03-08T02:03:45.705Z,76.71
2018-03-08T02:04:45.970Z,77.09
2018-03-08T02:05:45.737Z,77.18
2018-03-08T02:06:46.006Z,77.18
2018-03-08T02:07:46.014Z,77.71
2018-03-08T02:08:46.076Z,78.09
2018-03-08T02:09:46.049Z,77.62
2018-03-08T02:10:46.122Z,77.14
2018-03-08T02:11:46.076Z,77.56
2018-03-08T02:12:45.839Z,77.62
2018-03-08T02:13:46.108Z,77.71
2018-03-08T02:14:46.126Z,77.9
2018-03-08T02:15:46.137Z,77.81
2018-03-08T02:16:45.902Z,77.9
2018-03-08T02:17:46.172Z,77.81
2018-03-08T02:18:46.185Z,77.81
2018-03-08T02:19:46.197Z,77.52
2018-03-08T02:20:46.212Z,77.71
2018-03-08T02:21:46.230Z,77.71
2018-03-08T02:22:45.991Z,78.47
2018-03-08T02:23:46.260Z,78.19
2018-03-08T02:24:46.277Z,78.19
2018-03-08T02:25:46.330Z,78.19
2018-03-08T02:26:46.302Z,77.62
2018-03-08T02:27:46.065Z,77.62
2018-03-08T02:28:46.078Z,77.43
2018-03-08T02:29:46.352Z,77.33
2018-03-08T02:30:46.367Z,77.62
2018-03-08T02:31:46.126Z,77.33
2018-03-08T02:32:46.139Z,76.8
2018-03-08T02:33:46.153Z,76.76
2018-03-08T02:34:46.168Z,77.43
2018-03-08T02:35:46.441Z,77.14
2018-03-08T02:36:46.464Z,77.24
2018-03-08T02:37:46.470Z,77.62
2018-03-08T02:38:46.479Z,77.71
2018-03-08T02:39:46.259Z,77.9
2018-03-08T02:40:46.561Z,78.47
2018-03-08T02:41:46.531Z,78.47
2018-03-08T02:42:46.548Z,78.09
2018-03-08T02:43:46.562Z,78.38
2018-03-08T02:44:46.316Z,77.71
2018-03-08T02:45:46.329Z,77.33
2018-03-08T02:46:46.601Z,77.9
2018-03-08T02:47:46.615Z,77.33
2018-03-08T02:48:46.628Z,77.43
2018-03-08T02:49:46.389Z,77.52
2018-03-08T02:50:46.759Z,77.05
2018-03-08T02:51:46.688Z,77.05
2018-03-08T02:52:46.703Z,76.95
2018-03-08T02:53:46.705Z,77.14
2018-03-08T02:54:46.718Z,77.43
2018-03-08T02:55:46.782Z,77.24
2018-03-08T02:56:46.758Z,76.95
2018-03-08T02:57:46.758Z,77.14
2018-03-08T02:58:46.779Z,76.29
2018-03-08T02:59:46.792Z,76.76
2018-03-08T03:00:46.552Z,76.76
2018-03-08T03:01:46.824Z,77.14
2018-03-08T03:02:46.581Z,76.95
2018-03-08T03:03:46.856Z,76.95
2018-03-08T03:04:46.611Z,77.14
2018-03-08T03:05:46.932Z,77.14
2018-03-08T03:06:46.899Z,77.05
2018-03-08T03:07:46.908Z,76.39
2018-03-08T03:08:46.926Z,76.76
2018-03-08T03:09:47.002Z,76.57
2018-03-08T03:10:46.749Z,76.86
2018-03-08T03:11:46.963Z,76.39
2018-03-08T03:12:46.983Z,76.57
2018-03-08T03:13:46.996Z,76.1
2018-03-08T03:14:47.018Z,75.85
2018-03-08T03:15:47.026Z,75.57
2018-03-08T03:16:47.054Z,75.28
2018-03-08T03:17:47.061Z,75.28
2018-03-08T03:18:47.092Z,74.81
2018-03-08T03:19:47.086Z,74.9
2018-03-08T03:20:47.105Z,74.71
2018-03-08T03:21:47.118Z,74.52
2018-03-08T03:22:46.879Z,75
2018-03-08T03:23:47.146Z,74.71
2018-03-08T03:24:47.168Z,74.43
2018-03-08T03:25:47.185Z,75.09
2018-03-08T03:26:47.195Z,75.47
2018-03-08T03:27:47.211Z,74.9
2018-03-08T03:28:47.274Z,75.47
2018-03-08T03:29:46.985Z,75.53
2018-03-08T03:30:47.000Z,75.62
2018-03-08T03:31:47.269Z,75.47
2018-03-08T03:32:47.289Z,75
2018-03-08T03:33:47.044Z,74.52
2018-03-08T03:34:47.316Z,75.09
2018-03-08T03:35:47.327Z,75
2018-03-08T03:36:47.353Z,75.57
2018-03-08T03:37:47.359Z,75.76
2018-03-08T03:38:47.376Z,75.62
2018-03-08T03:39:47.387Z,75.43
2018-03-08T03:40:47.408Z,75.62
2018-03-08T03:41:47.424Z,75.81
2018-03-08T03:42:47.437Z,75.81
2018-03-08T03:43:47.245Z,75.38
2018-03-08T03:44:47.467Z,75
2018-03-08T03:45:47.481Z,74.62
2018-03-08T03:46:47.498Z,75
2018-03-08T03:47:47.254Z,75.38
2018-03-08T03:48:47.529Z,75.95
2018-03-08T03:49:47.541Z,75.76
2018-03-08T03:50:47.552Z,75.95
2018-03-08T03:51:47.568Z,76.1
2018-03-08T03:52:47.592Z,76.48
2018-03-08T03:53:47.603Z,76.67
2018-03-08T03:54:47.614Z,77.33
2018-03-08T03:55:47.630Z,77.33
2018-03-08T03:56:47.644Z,77.05
2018-03-08T03:57:47.431Z,77.33
2018-03-08T03:58:47.470Z,77.62
2018-03-08T03:59:47.444Z,78.09
2018-03-08T04:00:47.457Z,78.19
2018-03-08T04:01:47.464Z,79.42
2018-03-08T04:02:47.480Z,78.66
2018-03-08T04:03:47.492Z,78.28
2018-03-08T04:04:47.762Z,79.14
2018-03-08T04:05:47.773Z,79.23
2018-03-08T04:06:47.539Z,79.23
2018-03-08T04:07:47.808Z,79.52
2018-03-08T04:08:47.570Z,78.95
2018-03-08T04:09:47.584Z,79.52
2018-03-08T04:10:47.854Z,79.23
2018-03-08T04:11:47.865Z,79.33
2018-03-08T04:12:47.629Z,79.52
2018-03-08T04:13:47.953Z,79.8
2018-03-08T04:14:47.914Z,79.9
2018-03-08T04:15:47.672Z,79.8
2018-03-08T04:16:47.945Z,79.23
2018-03-08T04:17:47.701Z,79.14
2018-03-08T04:18:47.974Z,79.71
2018-03-08T04:19:47.734Z,79.8
2018-03-08T04:20:48.000Z,79.42
2018-03-08T04:21:48.023Z,79.33
2018-03-08T04:22:48.028Z,79.33
2018-03-08T04:23:47.792Z,79.23
2018-03-08T04:24:48.058Z,79.52
2018-03-08T04:25:48.076Z,79.8
2018-03-08T04:26:47.836Z,80.18
2018-03-08T04:27:47.851Z,80.08
2018-03-08T04:28:48.221Z,79.99
2018-03-08T04:29:47.881Z,80.46
2018-03-08T04:30:47.893Z,80.08
2018-03-08T04:31:48.169Z,80.27
2018-03-08T04:32:47.928Z,81.13
2018-03-08T04:33:48.193Z,81.04
2018-03-08T04:34:47.953Z,81.04
2018-03-08T04:35:47.968Z,81.23
2018-03-08T04:36:47.989Z,81.04
2018-03-08T04:37:48.259Z,81.13
2018-03-08T04:38:48.279Z,81.23
2018-03-08T04:39:48.281Z,81.51
2018-03-08T04:40:48.041Z,82.08
2018-03-08T04:41:48.309Z,82.04
2018-03-08T04:42:48.326Z,82.04
2018-03-08T04:43:48.338Z,81.66
2018-03-08T04:44:48.098Z,81.85
2018-03-08T04:45:48.366Z,81.88
2018-03-08T04:46:48.383Z,81.79
2018-03-08T04:47:48.406Z,81.41
2018-03-08T04:48:48.414Z,81.41
2018-03-08T04:49:48.432Z,81.32
2018-03-08T04:50:48.466Z,82.17
2018-03-08T04:51:48.211Z,81.23
2018-03-08T04:52:48.527Z,81.04
2018-03-08T04:53:48.484Z,80.84
2018-03-08T04:54:48.506Z,81.04
2018-03-08T04:55:48.518Z,80.65
2018-03-08T04:56:48.524Z,81.13
2018-03-08T04:57:48.290Z,80.75
2018-03-08T04:58:48.555Z,80.46
2018-03-08T04:59:48.569Z,80.08
2018-03-08T05:00:48.595Z,80.18
2018-03-08T05:01:48.347Z,79.9
2018-03-08T05:02:48.617Z,80.37
2018-03-08T05:03:48.375Z,80.46
2018-03-08T05:04:48.394Z,80.46
2018-03-08T05:05:48.713Z,80.18
2018-03-08T05:06:48.421Z,80.46
2018-03-08T05:07:48.697Z,80.94
2018-03-08T05:08:48.706Z,81.04
2018-03-08T05:09:48.721Z,81.7
2018-03-08T05:10:48.736Z,81.85
2018-03-08T05:11:48.494Z,81.32
2018-03-08T05:12:48.763Z,81.79
2018-03-08T05:13:48.526Z,82.13
2018-03-08T05:14:48.792Z,81.7
2018-03-08T05:15:48.809Z,81.75
2018-03-08T05:16:48.867Z,81.79
2018-03-08T05:17:48.842Z,81.7
2018-03-08T05:18:48.854Z,82.23
2018-03-08T05:19:48.882Z,81.75
2018-03-08T05:20:48.931Z,82.7
2018-03-08T05:21:48.894Z,82.51
2018-03-08T05:22:48.905Z,82.79
2018-03-08T05:23:49.000Z,82.51
2018-03-08T05:24:48.681Z,82.51
2018-03-08T05:25:48.948Z,82.51
2018-03-08T05:26:48.712Z,82.79
2018-03-08T05:27:48.977Z,82.98
2018-03-08T05:28:49.000Z,83.08
2018-03-08T05:29:49.009Z,82.89
2018-03-08T05:30:49.081Z,82.79
2018-03-08T05:31:48.785Z,82.89
2018-03-08T05:32:48.799Z,83.08
2018-03-08T05:33:48.815Z,82.79
2018-03-08T05:34:48.828Z,82.51
2018-03-08T05:35:49.096Z,82.7
2018-03-08T05:36:49.114Z,83.08
2018-03-08T05:37:50.224Z,82.79
2018-03-08T05:38:48.887Z,82.51
2018-03-08T05:39:48.905Z,82.79
2018-03-08T05:40:49.167Z,82.42
2018-03-08T05:41:49.182Z,81.94
2018-03-08T05:42:48.951Z,82.13
2018-03-08T05:43:49.214Z,82.13
2018-03-08T05:44:49.230Z,82.32
2018-03-08T05:45:49.242Z,81.75
2018-03-08T05:46:49.259Z,81.94
2018-03-08T05:47:49.271Z,81.66
2018-03-08T05:48:49.299Z,82.04
2018-03-08T05:49:49.047Z,81.85
2018-03-08T05:50:49.317Z,82.13
2018-03-08T05:51:49.329Z,81.88
2018-03-08T05:52:49.342Z,81.98
2018-03-08T05:53:49.358Z,82.08
2018-03-08T05:54:49.115Z,82.08
2018-03-08T05:55:49.132Z,81.79
2018-03-08T05:56:49.401Z,81.7
2018-03-08T05:57:49.464Z,81.41
2018-03-08T05:58:49.436Z,81.23
2018-03-08T05:59:49.186Z,82.08
2018-03-08T06:00:49.469Z,81.75
2018-03-08T06:01:49.470Z,81.75
2018-03-08T06:02:49.484Z,81.94
2018-03-08T06:03:49.252Z,81.6
2018-03-08T06:04:49.567Z,81.98
2018-03-08T06:05:49.533Z,82.08
2018-03-08T06:06:49.292Z,81.94
2018-03-08T06:07:49.561Z,81.66
2018-03-08T06:08:49.318Z,81.23
2018-03-08T06:09:49.585Z,81.32
2018-03-08T06:10:49.602Z,81.18
2018-03-08T06:11:49.369Z,80.84
2018-03-08T06:12:49.378Z,81.04
2018-03-08T06:13:49.392Z,81.04
2018-03-08T06:14:49.406Z,80.37
2018-03-08T06:15:49.422Z,80.46
2018-03-08T06:16:49.687Z,79.42
2018-03-08T06:17:49.716Z,79.61
2018-03-08T06:18:49.725Z,79.8
2018-03-08T06:19:49.478Z,79.33
2018-03-08T06:20:49.747Z,79.8
2018-03-08T06:21:49.762Z,79.33
2018-03-08T06:22:49.524Z,79.33
2018-03-08T06:23:49.539Z,79.23
2018-03-08T06:24:49.806Z,79.42
2018-03-08T06:25:49.823Z,78.66
2018-03-08T06:26:49.838Z,78.66
2018-03-08T06:27:49.859Z,78.56
2018-03-08T06:28:49.615Z,78.28
2018-03-08T06:29:49.882Z,78.47
2018-03-08T06:30:49.896Z,78.95
2018-03-08T06:31:49.912Z,79.23
2018-03-08T06:32:49.932Z,79.42
2018-03-08T06:33:49.942Z,80.37
2018-03-08T06:34:49.961Z,80.37
2018-03-08T06:35:49.972Z,80.27
2018-03-08T06:36:49.990Z,80.27
2018-03-08T06:37:50.003Z,80.46
2018-03-08T06:38:50.018Z,80.56
2018-03-08T06:39:49.780Z,80.18
2018-03-08T06:40:50.048Z,79.52
2018-03-08T06:41:50.057Z,79.99
2018-03-08T06:42:50.074Z,80.27
2018-03-08T06:43:49.840Z,79.61
2018-03-08T06:44:49.868Z,79.8
2018-03-08T06:45:50.120Z,79.33
2018-03-08T06:46:50.143Z,79.33
2018-03-08T06:47:50.304Z,79.71
2018-03-08T06:48:50.166Z,79.8
2018-03-08T06:49:50.179Z,79.8
2018-03-08T06:50:50.197Z,79.42
2018-03-08T06:51:49.953Z,79.33
2018-03-08T06:52:50.324Z,78.47
2018-03-08T06:53:50.244Z,78.38
2018-03-08T06:54:50.250Z,78.56
2018-03-08T06:55:50.267Z,78.28
2018-03-08T06:56:50.298Z,79.23
2018-03-08T06:57:50.300Z,79.14
2018-03-08T06:58:50.307Z,79.14
2018-03-08T06:59:50.328Z,79.14
2018-03-08T07:00:50.342Z,79.23
2018-03-08T07:01:50.354Z,79.33
2018-03-08T07:02:50.410Z,78.47
2018-03-08T07:03:50.130Z,78.38
2018-03-08T07:04:50.143Z,78.28
2018-03-08T07:05:50.411Z,78.56
2018-03-08T07:06:50.427Z,78.66
2018-03-08T07:07:50.188Z,78
2018-03-08T07:08:50.456Z,78.56
2018-03-08T07:09:50.572Z,78.95
2018-03-08T07:10:50.486Z,78.75
2018-03-08T07:11:50.506Z,78.28
2018-03-08T07:12:50.520Z,78.09
2018-03-08T07:13:50.535Z,77.52
2018-03-08T07:14:50.549Z,77.62
2018-03-08T07:15:50.656Z,77.33
2018-03-08T07:16:50.578Z,77.62
2018-03-08T07:17:50.592Z,77.43
2018-03-08T07:18:50.603Z,77.52
2018-03-08T07:19:50.626Z,77.52
2018-03-08T07:20:50.638Z,76.99
2018-03-08T07:21:50.653Z,77.56
2018-03-08T07:22:50.667Z,77.14
2018-03-08T07:23:50.427Z,77.09
2018-03-08T07:24:50.695Z,76.42
2018-03-08T07:25:50.716Z,76.71
2018-03-08T07:26:50.733Z,77.28
2018-03-08T07:27:50.744Z,77.14
2018-03-08T07:28:50.760Z,77.05
2018-03-08T07:29:50.518Z,76.95
2018-03-08T07:30:50.532Z,77.05
2018-03-08T07:31:50.802Z,77.24
2018-03-08T07:32:50.831Z,76.76
2018-03-08T07:33:50.574Z,76.67
2018-03-08T07:34:50.591Z,75.95
2018-03-08T07:35:50.606Z,76.48
2018-03-08T07:36:50.625Z,76.29
2018-03-08T07:37:50.647Z,75.85
2018-03-08T07:38:50.653Z,75.19
2018-03-08T07:39:50.674Z,74.9
2018-03-08T07:40:50.685Z,74.71
2018-03-08T07:41:50.700Z,75.19
2018-03-08T07:42:50.711Z,74.62
2018-03-08T07:43:50.997Z,74.24
2018-03-08T07:44:50.742Z,73.96
2018-03-08T07:45:50.762Z,73.96
2018-03-08T07:46:50.775Z,73.38
2018-03-08T07:47:51.042Z,72.85
2018-03-08T07:48:50.800Z,71.96
2018-03-08T07:49:50.818Z,72.06
2018-03-08T07:50:51.085Z,71.14
2018-03-08T07:51:50.849Z,70.95
2018-03-08T07:52:50.868Z,71.11
2018-03-08T07:53:50.882Z,71.3
2018-03-08T07:54:50.896Z,71.48
2018-03-08T07:55:50.913Z,71.04
2018-03-08T07:56:50.926Z,70.86
2018-03-08T07:57:50.942Z,70.67
2018-03-08T07:58:50.962Z,71.52
2018-03-08T07:59:51.231Z,70.76
2018-03-08T08:00:50.991Z,70.57
2018-03-08T08:01:51.267Z,70.29
2018-03-08T08:02:51.020Z,70.48
2018-03-08T08:03:51.296Z,70.19
2018-03-08T08:04:51.053Z,70.38
2018-03-08T08:05:51.322Z,69.91
2018-03-08T08:06:51.340Z,69.34
2018-03-08T08:07:51.351Z,68.86
2018-03-08T08:08:51.365Z,68.86
2018-03-08T08:09:51.380Z,68.67
2018-03-08T08:10:51.400Z,68.67
2018-03-08T08:11:51.162Z,68.29
2018-03-08T08:12:51.441Z,67.34
2018-03-08T08:13:51.196Z,67.15
2018-03-08T08:14:51.464Z,67.63
2018-03-08T08:15:51.233Z,67.53
2018-03-08T08:16:51.244Z,67.53
2018-03-08T08:17:51.514Z,67.15
2018-03-08T08:18:51.528Z,67.15
2018-03-08T08:19:51.291Z,66.39
2018-03-08T08:20:51.309Z,65.06
2018-03-08T08:21:51.578Z,65.35
2018-03-08T08:22:51.645Z,65.28
2018-03-08T08:23:51.351Z,64.81
2018-03-08T08:24:51.630Z,64.72
2018-03-08T08:25:51.641Z,64.43
2018-03-08T08:26:51.401Z,64.34
2018-03-08T08:27:51.416Z,63.48
2018-03-08T08:28:51.695Z,63.29
2018-03-08T08:29:51.700Z,63.01
2018-03-08T08:30:51.718Z,62.24
2018-03-08T08:31:51.739Z,61.96
2018-03-08T08:32:51.755Z,61.96
2018-03-08T08:33:51.767Z,61.58
2018-03-08T08:34:51.789Z,61.1
2018-03-08T08:35:51.546Z,60.44
2018-03-08T08:36:51.563Z,59.58
2018-03-08T08:37:51.627Z,59.49
2018-03-08T08:38:51.593Z,59.77
2018-03-08T08:39:51.609Z,59.39
2018-03-08T08:40:51.877Z,59.01
2018-03-08T08:41:51.895Z,58.63
2018-03-08T08:42:51.906Z,58.44
2018-03-08T08:43:51.932Z,58.25
2018-03-08T08:44:51.946Z,57.87
2018-03-08T08:45:51.707Z,57.3
2018-03-08T08:46:51.983Z,56.92
2018-03-08T08:47:51.997Z,56.73
2018-03-08T08:48:52.029Z,56
2018-03-08T08:49:51.773Z,54.57
2018-03-08T08:50:52.044Z,54.38
2018-03-08T08:51:52.065Z,55.02
2018-03-08T08:52:52.128Z,54.29
2018-03-08T08:53:52.096Z,53.81
2018-03-08T08:54:52.107Z,53.53
2018-03-08T08:55:52.132Z,53.63
2018-03-08T08:56:52.139Z,53.43
2018-03-08T08:57:52.157Z,52.96
2018-03-08T08:58:52.173Z,52.96
2018-03-08T08:59:51.947Z,52.86
2018-03-08T09:00:52.211Z,52.48
2018-03-08T09:01:51.969Z,52.01
2018-03-08T09:02:52.244Z,51.75
2018-03-08T09:03:52.004Z,50.79
2018-03-08T09:04:52.274Z,50.13
2018-03-08T09:05:52.303Z,50.32
2018-03-08T09:06:52.311Z,49.65
2018-03-08T09:07:52.378Z,50.39
2018-03-08T09:08:52.350Z,50.77
2018-03-08T09:09:52.358Z,50.96
2018-03-08T09:10:52.375Z,51.06
2018-03-08T09:11:52.394Z,50.39
2018-03-08T09:12:52.408Z,50.04
2018-03-08T09:13:52.179Z,49.56
2018-03-08T09:14:52.450Z,48.8
2018-03-08T09:15:52.469Z,48.71
2018-03-08T09:16:52.480Z,48.51
2018-03-08T09:17:52.491Z,49.08
2018-03-08T09:18:52.562Z,48.51
2018-03-08T09:19:52.535Z,48.9
2018-03-08T09:20:52.551Z,48.71
2018-03-08T09:21:52.563Z,48.16
2018-03-08T09:22:52.581Z,47.97
2018-03-08T09:23:52.397Z,48.06
2018-03-08T09:24:52.624Z,47.11
2018-03-08T09:25:52.633Z,47.58
2018-03-08T09:26:52.399Z,47.58
2018-03-08T09:27:52.672Z,47.58
2018-03-08T09:28:52.682Z,47.58
2018-03-08T09:29:52.702Z,47.11
2018-03-08T09:30:52.718Z,46.83
2018-03-08T09:31:52.736Z,46.92
2018-03-08T09:32:52.498Z,46.83
2018-03-08T09:33:52.834Z,47.2
2018-03-08T09:34:52.786Z,47.39
2018-03-08T09:35:52.808Z,46.92
2018-03-08T09:36:52.570Z,46.73
2018-03-08T09:37:52.588Z,46.63
2018-03-08T09:38:52.906Z,45.42
2018-03-08T09:39:52.626Z,45.32
2018-03-08T09:40:52.897Z,44.85
2018-03-08T09:41:52.911Z,43.61
2018-03-08T09:42:52.951Z,43.8
2018-03-08T09:43:52.696Z,43.71
2018-03-08T09:44:52.976Z,43.71
2018-03-08T09:45:52.988Z,43.71
2018-03-08T09:46:53.008Z,43.44
2018-03-08T09:47:53.026Z,43.8
2018-03-08T09:48:53.046Z,44.27
2018-03-08T09:49:53.053Z,44.09
2018-03-08T09:50:53.073Z,43.8
2018-03-08T09:51:53.156Z,43.9
2018-03-08T09:52:53.115Z,43.63
2018-03-08T09:53:53.178Z,43.44
2018-03-08T09:54:52.895Z,42.87
2018-03-08T09:55:53.164Z,42.58
2018-03-08T09:56:53.185Z,43.35
2018-03-08T09:57:52.973Z,43.16
2018-03-08T09:58:53.263Z,42.3
2018-03-08T09:59:53.241Z,43.35
2018-03-08T10:00:53.257Z,43.06
2018-03-08T10:01:53.029Z,43.16
2018-03-08T10:02:53.051Z,43.16
2018-03-08T10:03:53.323Z,43.35
2018-03-08T10:04:53.086Z,42.3
2018-03-08T10:05:53.108Z,42.22
2018-03-08T10:06:53.381Z,41.84
2018-03-08T10:07:53.146Z,41.27
2018-03-08T10:08:53.467Z,40.81
2018-03-08T10:09:53.436Z,39.86
2018-03-08T10:10:53.456Z,39.86
2018-03-08T10:11:53.473Z,39.84
2018-03-08T10:12:53.578Z,39.84
2018-03-08T10:13:53.514Z,39.27
2018-03-08T10:14:53.532Z,39.08
2018-03-08T10:15:53.555Z,39.08
2018-03-08T10:16:53.576Z,38.24
2018-03-08T10:17:53.595Z,37.95
2018-03-08T10:18:53.662Z,37.59
2018-03-08T10:19:53.681Z,37.78
2018-03-08T10:20:53.653Z,37.12
2018-03-08T10:21:53.671Z,38.34
2018-03-08T10:22:53.442Z,39.17
2018-03-08T10:23:53.765Z,39.27
2018-03-08T10:24:53.479Z,39.56
2018-03-08T10:25:53.754Z,39.75
2018-03-08T10:26:53.771Z,39.94
2018-03-08T10:27:53.539Z,39.65
2018-03-08T10:28:53.810Z,39.94
2018-03-08T10:29:53.832Z,38.89
2018-03-08T10:30:53.854Z,38.81
2018-03-08T10:31:53.872Z,38.71
2018-03-08T10:32:53.892Z,38.05
2018-03-08T10:33:53.917Z,37.48
2018-03-08T10:34:53.932Z,37.78
2018-03-08T10:35:53.956Z,37.12
2018-03-08T10:36:53.981Z,37.78
2018-03-08T10:37:54.000Z,37.68
2018-03-08T10:38:54.064Z,37.78
2018-03-08T10:39:54.042Z,37.88
2018-03-08T10:40:53.803Z,38.05
2018-03-08T10:41:54.074Z,38.15
2018-03-08T10:42:54.102Z,38.05
2018-03-08T10:43:54.113Z,37.86
2018-03-08T10:44:54.137Z,38.05
2018-03-08T10:45:54.176Z,38.05
2018-03-08T10:46:54.179Z,38.05
2018-03-08T10:47:53.944Z,38.15
2018-03-08T10:49:02.444Z,37.66
2018-03-08T10:49:54.239Z,37.66
2018-03-08T10:50:54.003Z,37.93
2018-03-08T10:51:54.275Z,37.74
2018-03-08T10:52:54.044Z,38.41
2018-03-08T10:53:54.364Z,39.08
2018-03-08T10:54:54.338Z,39.08
2018-03-08T10:55:54.354Z,38.98
2018-03-08T10:56:54.122Z,39.08
2018-03-08T10:57:54.147Z,39.46
2018-03-08T10:58:54.411Z,39.65
2018-03-08T10:59:54.438Z,39.75
2018-03-08T11:00:54.459Z,40.12
2018-03-08T11:01:54.476Z,40.58
2018-03-08T11:02:54.493Z,40.58
2018-03-08T11:03:54.515Z,40.58
2018-03-08T11:04:54.536Z,40.22
2018-03-08T11:05:54.298Z,39.56
2018-03-08T11:06:54.573Z,39.73
2018-03-08T11:07:54.593Z,38.51
2018-03-08T11:08:54.681Z,38.7
2018-03-08T11:09:54.628Z,38.7
2018-03-08T11:10:54.653Z,38.98
2018-03-08T11:11:54.668Z,38.98
2018-03-08T11:12:54.690Z,38.03
2018-03-08T11:13:54.706Z,37.1
2018-03-08T11:14:54.728Z,36.14
2018-03-08T11:15:54.754Z,35.86
2018-03-08T11:16:54.768Z,35.57
2018-03-08T11:17:54.789Z,34.82
2018-03-08T11:18:54.811Z,35.21
2018-03-08T11:19:54.831Z,35.1
2018-03-08T11:20:54.866Z,35.21
2018-03-08T11:21:54.870Z,35.02
2018-03-08T11:22:54.893Z,34.82
2018-03-08T11:23:54.965Z,35.02
2018-03-08T11:24:54.936Z,35.39
2018-03-08T11:25:54.954Z,34.55
2018-03-08T11:26:54.975Z,34
2018-03-08T11:27:54.743Z,33.42
2018-03-08T11:28:55.025Z,33.42
2018-03-08T11:29:55.043Z,33.35
2018-03-08T11:30:55.066Z,32.58
2018-03-08T11:31:54.838Z,31.84
2018-03-08T11:32:55.115Z,31.64
2018-03-08T11:33:55.134Z,31.07
2018-03-08T11:34:55.160Z,31.18
2018-03-08T11:35:55.184Z,32.21
2018-03-08T11:36:55.207Z,31.85
2018-03-08T11:37:54.984Z,32.81
2018-03-08T11:38:55.308Z,32.98
2018-03-08T11:39:55.286Z,32.52
2018-03-08T11:40:55.311Z,31.48
2018-03-08T11:41:55.336Z,30.44
2018-03-08T11:42:55.389Z,29.69
2018-03-08T11:43:55.388Z,28.56
2018-03-08T11:44:55.162Z,27.81
2018-03-08T11:45:55.439Z,27.25
2018-03-08T11:46:55.218Z,27.05
2018-03-08T11:47:55.499Z,25.53
2018-03-08T11:48:55.524Z,25.06
2018-03-08T11:49:56.666Z,24.1
2018-03-08T11:50:55.580Z,24.1
2018-03-08T11:51:55.610Z,24.95
2018-03-08T11:52:55.635Z,25.32
2018-03-08T11:53:57.476Z,26.56
2018-03-08T11:54:55.879Z,27.2
2018-03-08T11:55:55.724Z,27.97
2018-03-08T11:56:55.751Z,28.45
2018-03-08T11:57:55.779Z,27.97
2018-03-08T11:58:55.804Z,26.83
2018-03-08T11:59:55.836Z,26.18
2018-03-08T12:00:55.871Z,25.51
2018-03-08T12:01:55.901Z,25.79
2018-03-08T12:02:55.666Z,25.98
2018-03-08T12:03:55.946Z,26.09
2018-03-08T12:04:55.979Z,23.91
2018-03-08T12:05:56.132Z,22.69
2018-03-08T12:06:55.780Z,22.31
2018-03-08T12:07:55.813Z,22.41
2018-03-08T12:08:56.152Z,21.65
2018-03-08T12:09:56.154Z,22.03
2018-03-08T12:10:56.157Z,21.94
2018-03-08T12:11:56.240Z,21.65
2018-03-08T12:12:56.216Z,21.45
2018-03-08T12:13:55.993Z,20.98
2018-03-08T12:14:56.022Z,21
2018-03-08T12:15:56.057Z,20.61
2018-03-08T12:16:56.126Z,19.95
2018-03-08T12:17:56.167Z,19.95
2018-03-08T12:18:56.401Z,18.88
2018-03-08T12:19:56.432Z,18.6
2018-03-08T12:20:56.464Z,18.32
2018-03-08T12:21:56.496Z,17.55
2018-03-08T12:22:56.271Z,17.73
2018-03-08T12:23:56.556Z,17.93
2018-03-08T12:24:56.383Z,16.59
2018-03-08T12:25:56.365Z,16.6
2018-03-08T12:26:56.393Z,17.17
2018-03-08T12:27:56.683Z,17.36
2018-03-08T12:28:56.459Z,17.56
2018-03-08T12:29:56.744Z,17.85
2018-03-08T12:30:56.778Z,18.34
2018-03-08T12:31:56.818Z,18.62
2018-03-08T12:32:56.864Z,19.09
2018-03-08T12:33:56.624Z,18.8
2018-03-08T12:34:56.913Z,19.76
2018-03-08T12:35:56.684Z,19.56
2018-03-08T12:36:56.982Z,18.62
2018-03-08T12:37:56.998Z,17.48
2018-03-08T12:38:56.775Z,16.53
2018-03-08T12:39:57.114Z,16.24
2018-03-08T12:40:57.093Z,16.44
2018-03-08T12:41:57.326Z,15.76
2018-03-08T12:42:57.155Z,16.34
2018-03-08T12:43:57.189Z,16.72
2018-03-08T12:44:57.220Z,16.81
2018-03-08T12:45:57.254Z,16.82
2018-03-08T12:46:57.284Z,16.52
2018-03-08T12:47:57.061Z,16.62
2018-03-08T12:48:57.093Z,16.52
2018-03-08T12:49:57.124Z,16.24
2018-03-08T12:50:57.410Z,16.71
2018-03-08T12:51:57.442Z,16.14
2018-03-08T12:52:57.477Z,15.56
2018-03-08T12:53:57.500Z,16.42
2018-03-08T12:54:57.586Z,16.41
2018-03-08T12:55:57.570Z,16.12